createdAt,value
2023-01-08T00:00:18.524Z,2.09
2023-01-08T00:01:27.710Z,1.3
2023-01-08T00:03:46.042Z,1.6
2023-01-08T00:04:55.222Z,1.9
2023-01-08T00:06:04.381Z,1.4
2023-01-08T00:07:13.563Z,1.4
2023-01-08T00:08:22.724Z,1.2
2023-01-08T00:09:31.909Z,1.3
2023-01-08T00:10:40.097Z,1.3
2023-01-08T00:11:49.271Z,1.3
2023-01-08T00:12:58.465Z,1.5
2023-01-08T00:14:07.605Z,1.2
2023-01-08T00:16:25.976Z,1.7
2023-01-08T00:17:34.160Z,1.3
2023-01-08T00:18:42.337Z,1.3
2023-01-08T00:19:51.521Z,1.6
2023-01-08T00:21:00.686Z,1.3
2023-01-08T00:22:09.873Z,1.7
2023-01-08T00:23:18.067Z,1.6
2023-01-08T00:24:26.256Z,1.3
2023-01-08T00:25:35.419Z,1.3
2023-01-08T00:26:44.591Z,1.3
2023-01-08T00:27:53.770Z,1.3
2023-01-08T00:29:02.934Z,1.3
2023-01-08T00:30:12.110Z,1.3
2023-01-08T00:31:21.276Z,1.6
2023-01-08T00:32:30.446Z,1.3
2023-01-08T00:33:39.623Z,1.2
2023-01-08T00:34:48.794Z,1.3
2023-01-08T00:35:57.013Z,1.2
2023-01-08T00:37:05.179Z,1.3
2023-01-08T00:38:14.366Z,1.1
2023-01-08T00:39:23.582Z,1.1
2023-01-08T00:40:32.710Z,1.2
2023-01-08T00:41:41.874Z,1.2
2023-01-08T00:42:51.034Z,1.2
2023-01-08T00:44:00.258Z,1.3
2023-01-08T00:45:09.386Z,1.3
2023-01-08T00:46:18.615Z,1.3
2023-01-08T00:47:27.737Z,1
2023-01-08T00:48:36.904Z,1.3
2023-01-08T00:49:46.081Z,1
2023-01-08T00:50:55.254Z,1.2
2023-01-08T00:52:03.432Z,1.2
2023-01-08T00:53:11.635Z,1.3
2023-01-08T00:54:20.808Z,1.1
2023-01-08T00:55:29.976Z,1.2
2023-01-08T00:56:39.156Z,1.5
2023-01-08T00:57:48.324Z,1
2023-01-08T00:58:57.504Z,1
2023-01-08T01:00:05.698Z,1
2023-01-08T01:01:13.888Z,1.1
2023-01-08T01:02:23.047Z,1.1
2023-01-08T01:03:31.249Z,1.7
2023-01-08T01:04:39.436Z,1.2
2023-01-08T01:05:48.605Z,1.1
2023-01-08T01:06:57.810Z,1.5
2023-01-08T01:08:06.983Z,1.2
2023-01-08T01:09:16.164Z,1.4
2023-01-08T01:10:25.298Z,1.2
2023-01-08T01:11:34.465Z,1.5
2023-01-08T01:12:43.801Z,1.3
2023-01-08T01:13:52.845Z,1.4
2023-01-08T01:15:01.997Z,1.3
2023-01-08T01:16:11.168Z,1.3
2023-01-08T01:17:20.384Z,1.3
2023-01-08T01:18:29.510Z,1.2
2023-01-08T01:19:37.701Z,1.1
2023-01-08T01:20:46.879Z,1.2
2023-01-08T01:21:56.218Z,1.3
2023-01-08T01:23:05.207Z,1.2
2023-01-08T01:24:14.386Z,1.3
2023-01-08T01:25:23.550Z,1.4
2023-01-08T01:26:32.750Z,1.1
2023-01-08T01:27:41.909Z,1.2
2023-01-08T01:28:51.076Z,1.3
2023-01-08T01:30:00.264Z,1.3
2023-01-08T01:31:09.416Z,1.2
2023-01-08T01:32:18.591Z,1.1
2023-01-08T01:33:27.776Z,1.2
2023-01-08T01:34:35.948Z,1.4
2023-01-08T01:35:45.137Z,1.1
2023-01-08T01:36:53.313Z,1.1
2023-01-08T01:38:01.509Z,1.8
2023-01-08T01:39:10.682Z,1.1
2023-01-08T01:40:19.853Z,1.4
2023-01-08T01:41:29.034Z,1.1
2023-01-08T01:42:38.191Z,1.2
2023-01-08T01:43:47.367Z,1.2
2023-01-08T01:44:56.541Z,1.2
2023-01-08T01:46:05.712Z,1.2
2023-01-08T01:47:14.883Z,1.3
2023-01-08T01:48:24.064Z,1
2023-01-08T01:49:33.231Z,1
2023-01-08T01:50:42.405Z,1.1
2023-01-08T01:51:51.573Z,1.2
2023-01-08T01:52:59.780Z,1.1
2023-01-08T01:54:08.933Z,1.2
2023-01-08T01:55:18.111Z,1.1
2023-01-08T01:56:27.277Z,1.2
2023-01-08T01:57:36.457Z,1.6
2023-01-08T01:58:45.615Z,1.3
2023-01-08T01:59:54.796Z,1.1
2023-01-08T02:01:02.997Z,1
2023-01-08T02:02:11.172Z,0.9
2023-01-08T02:03:20.363Z,1.4
2023-01-08T02:04:29.525Z,1
2023-01-08T02:05:37.720Z,1.2
2023-01-08T02:06:45.906Z,1
2023-01-08T02:07:55.084Z,1.6
2023-01-08T02:09:04.255Z,1.1
2023-01-08T02:10:13.422Z,1.3
2023-01-08T02:11:22.606Z,1.3
2023-01-08T02:12:31.825Z,1.2
2023-01-08T02:13:40.944Z,1.2
2023-01-08T02:14:50.101Z,1.4
2023-01-08T02:15:59.300Z,1.2
2023-01-08T02:17:08.465Z,1.1
2023-01-08T02:18:17.660Z,1.6
2023-01-08T02:19:26.807Z,1.1
2023-01-08T02:20:35.982Z,1.3
2023-01-08T02:21:44.174Z,1.1
2023-01-08T02:22:53.349Z,1.3
2023-01-08T02:24:02.510Z,1.1
2023-01-08T02:25:11.708Z,1.1
2023-01-08T02:26:20.868Z,1.1
2023-01-08T02:27:30.032Z,1.4
2023-01-08T02:28:39.213Z,1
2023-01-08T02:29:48.379Z,1
2023-01-08T02:30:57.546Z,1.8
2023-01-08T02:32:06.721Z,1.2
2023-01-08T02:33:15.889Z,1.3
2023-01-08T02:34:25.074Z,1.1
2023-01-08T02:35:34.237Z,1.1
2023-01-08T02:36:42.441Z,1.2
2023-01-08T02:37:50.612Z,1.2
2023-01-08T02:38:59.810Z,1.4
2023-01-08T02:40:08.969Z,1
2023-01-08T02:41:17.160Z,1.2
2023-01-08T02:42:25.353Z,1.3
2023-01-08T02:43:34.518Z,1
2023-01-08T02:44:43.711Z,1.1
2023-01-08T02:45:52.875Z,1.1
2023-01-08T02:47:02.081Z,1.1
2023-01-08T02:48:11.251Z,2.2
2023-01-08T02:49:20.386Z,1.5
2023-01-08T02:50:29.557Z,1.3
2023-01-08T02:51:38.726Z,1.1
2023-01-08T02:52:47.915Z,1
2023-01-08T02:53:57.076Z,1.2
2023-01-08T02:55:06.251Z,1.1
2023-01-08T02:56:15.409Z,1.3
2023-01-08T02:57:23.605Z,2.09
2023-01-08T02:58:32.778Z,1
2023-01-08T02:59:41.949Z,1.3
2023-01-08T03:00:51.130Z,1.1
2023-01-08T03:02:00.303Z,1.1
2023-01-08T03:03:09.468Z,1.3
2023-01-08T03:04:18.633Z,1.1
2023-01-08T03:05:26.866Z,1.1
2023-01-08T03:06:35.030Z,1
2023-01-08T03:07:43.230Z,1
2023-01-08T03:08:51.408Z,1.6
2023-01-08T03:10:00.593Z,1.1
2023-01-08T03:11:09.750Z,1.3
2023-01-08T03:13:28.117Z,1
2023-01-08T03:14:37.269Z,1.7
2023-01-08T03:15:46.442Z,1.5
2023-01-08T03:16:55.666Z,1.2
2023-01-08T03:19:13.967Z,1.3
2023-01-08T03:20:23.138Z,1.1
2023-01-08T03:21:32.307Z,1
2023-01-08T03:22:40.506Z,1.1
2023-01-08T03:23:48.688Z,1.5
2023-01-08T03:24:57.861Z,1.2
2023-01-08T03:26:07.038Z,1.1
2023-01-08T03:27:16.204Z,1.3
2023-01-08T03:28:25.387Z,1.1
2023-01-08T03:29:34.560Z,1
2023-01-08T03:30:43.735Z,1
2023-01-08T03:31:52.900Z,1.5
2023-01-08T03:33:02.074Z,1.2
2023-01-08T03:34:11.251Z,1.1
2023-01-08T03:35:19.428Z,1.1
2023-01-08T03:36:27.632Z,1.3
2023-01-08T03:37:36.803Z,1.3
2023-01-08T03:38:45.991Z,1.4
2023-01-08T03:39:55.161Z,1.4
2023-01-08T03:41:04.314Z,1.4
2023-01-08T03:42:13.497Z,1.1
2023-01-08T03:43:22.663Z,1.2
2023-01-08T03:44:31.835Z,1.2
2023-01-08T03:45:41.122Z,1.2
2023-01-08T03:46:50.180Z,1.5
2023-01-08T03:47:59.350Z,1.3
2023-01-08T03:49:08.527Z,1.2
2023-01-08T03:50:17.708Z,1.3
2023-01-08T03:51:25.896Z,1.3
2023-01-08T03:52:35.057Z,1.4
2023-01-08T03:53:44.256Z,1.4
2023-01-08T03:54:53.412Z,1.2
2023-01-08T03:56:02.586Z,1.3
2023-01-08T03:57:11.753Z,1.2
2023-01-08T03:58:20.925Z,1.2
2023-01-08T03:59:30.108Z,1.3
2023-01-08T04:00:39.268Z,1.3
2023-01-08T04:01:48.454Z,1.2
2023-01-08T04:02:57.621Z,1.4
2023-01-08T04:04:05.806Z,1.4
2023-01-08T04:05:13.997Z,1.2
2023-01-08T04:06:22.201Z,1.6
2023-01-08T04:07:30.388Z,1.1
2023-01-08T04:08:39.553Z,1.1
2023-01-08T04:09:48.726Z,1.3
2023-01-08T04:10:57.888Z,1.9
2023-01-08T04:12:07.077Z,1.1
2023-01-08T04:13:16.243Z,1.2
2023-01-08T04:14:25.420Z,1.1
2023-01-08T04:15:34.590Z,1.4
2023-01-08T04:16:43.756Z,1.4
2023-01-08T04:17:52.941Z,1.4
2023-01-08T04:19:02.099Z,1.4
2023-01-08T04:20:11.275Z,1.6
2023-01-08T04:21:20.470Z,1.1
2023-01-08T04:22:28.637Z,1.2
2023-01-08T04:23:37.806Z,1.5
2023-01-08T04:24:46.987Z,1.1
2023-01-08T04:25:56.158Z,1.1
2023-01-08T04:27:05.324Z,1.4
2023-01-08T04:28:14.511Z,1.2
2023-01-08T04:29:23.674Z,1.2
2023-01-08T04:30:31.878Z,1.1
2023-01-08T04:31:40.068Z,1.3
2023-01-08T04:32:48.261Z,1
2023-01-08T04:33:56.439Z,1
2023-01-08T04:35:05.629Z,1.2
2023-01-08T04:36:14.786Z,1.1
2023-01-08T04:37:23.959Z,1.1
2023-01-08T04:38:33.138Z,1.1
2023-01-08T04:39:42.305Z,1.1
2023-01-08T04:40:51.475Z,0.9
2023-01-08T04:42:00.660Z,1.8
2023-01-08T04:43:09.825Z,1.1
2023-01-08T04:44:19.003Z,1.1
2023-01-08T04:45:27.193Z,1.2
2023-01-08T04:46:36.367Z,1.4
2023-01-08T04:47:45.535Z,1
2023-01-08T04:48:54.745Z,1.1
2023-01-08T04:50:03.873Z,1.4
2023-01-08T04:51:13.059Z,1.2
2023-01-08T04:52:22.269Z,1.1
2023-01-08T04:53:31.408Z,1
2023-01-08T04:54:40.573Z,1.3
2023-01-08T04:55:49.746Z,1.1
2023-01-08T04:56:57.954Z,1.2
2023-01-08T04:58:06.129Z,1.5
2023-01-08T04:59:14.325Z,1
2023-01-08T05:00:22.516Z,1
2023-01-08T05:01:31.683Z,1.1
2023-01-08T05:02:40.848Z,1
2023-01-08T05:03:50.033Z,1.1
2023-01-08T05:04:59.209Z,1.7
2023-01-08T05:06:08.369Z,1.1
2023-01-08T05:07:17.550Z,1.3
2023-01-08T05:08:26.720Z,1.6
2023-01-08T05:09:35.895Z,2.09
2023-01-08T05:10:45.081Z,1.4
2023-01-08T05:11:54.225Z,1.5
2023-01-08T05:13:03.408Z,1.1
2023-01-08T05:14:12.565Z,1.5
2023-01-08T05:15:20.848Z,1.2
2023-01-08T05:16:29.943Z,1.5
2023-01-08T05:17:39.106Z,1.6
2023-01-08T05:18:48.284Z,1.2
2023-01-08T05:19:57.467Z,1.3
2023-01-08T05:21:06.632Z,1.2
2023-01-08T05:22:15.896Z,1.6
2023-01-08T05:23:24.015Z,1.2
2023-01-08T05:24:32.182Z,1.4
2023-01-08T05:25:41.367Z,1.6
2023-01-08T05:26:49.604Z,1.2
2023-01-08T05:27:57.741Z,2.09
2023-01-08T05:29:06.912Z,1.3
2023-01-08T05:30:16.089Z,1.4
2023-01-08T05:31:25.259Z,1.4
2023-01-08T05:32:34.441Z,1.2
2023-01-08T05:33:43.613Z,1.8
2023-01-08T05:34:52.788Z,1.3
2023-01-08T05:36:01.962Z,1.3
2023-01-08T05:37:11.114Z,1.4
2023-01-08T05:38:20.299Z,1.2
2023-01-08T05:39:29.470Z,1.3
2023-01-08T05:40:38.668Z,1.1
2023-01-08T05:41:47.812Z,1.1
2023-01-08T05:42:55.994Z,1.1
2023-01-08T05:44:05.172Z,1.1
2023-01-08T05:45:14.344Z,1.2
2023-01-08T05:46:23.512Z,1.1
2023-01-08T05:47:32.695Z,1.4
2023-01-08T05:48:41.868Z,1.1
2023-01-08T05:49:51.047Z,1.3
2023-01-08T05:50:59.233Z,1
2023-01-08T05:52:08.402Z,1.2
2023-01-08T05:53:16.609Z,1.2
2023-01-08T05:55:33.976Z,1.3
2023-01-08T05:56:42.152Z,1.1
2023-01-08T05:57:50.339Z,1
2023-01-08T05:58:59.519Z,1.7
2023-01-08T06:00:08.685Z,1.3
2023-01-08T06:01:17.859Z,1
2023-01-08T06:02:27.041Z,1.1
2023-01-08T06:03:36.214Z,1.3
2023-01-08T06:04:45.372Z,1
2023-01-08T06:05:54.547Z,1.2
2023-01-08T06:07:03.729Z,1.1
2023-01-08T06:08:12.891Z,1.2
2023-01-08T06:09:22.072Z,1.3
2023-01-08T06:10:31.240Z,1.3
2023-01-08T06:11:40.418Z,2.09
2023-01-08T06:12:49.588Z,1.5
2023-01-08T06:13:57.772Z,1.1
2023-01-08T06:15:06.951Z,1
2023-01-08T06:16:16.113Z,0.8
2023-01-08T06:17:25.293Z,1
2023-01-08T06:18:34.454Z,1.5
2023-01-08T06:19:43.635Z,1.2
2023-01-08T06:20:51.831Z,1.3
2023-01-08T06:22:00.125Z,1.1
2023-01-08T06:23:09.198Z,1.2
2023-01-08T06:24:17.383Z,1.3
2023-01-08T06:25:25.571Z,1.3
2023-01-08T06:26:34.738Z,1.2
2023-01-08T06:27:43.918Z,1
2023-01-08T06:28:53.094Z,1.1
2023-01-08T06:31:11.434Z,1.2
2023-01-08T06:32:20.614Z,1.1
2023-01-08T06:33:29.779Z,1.1
2023-01-08T06:34:38.959Z,1
2023-01-08T06:35:48.135Z,1.1
2023-01-08T06:36:57.304Z,1
2023-01-08T06:38:06.474Z,1.1
2023-01-08T06:39:15.639Z,1.2
2023-01-08T06:40:23.837Z,1
2023-01-08T06:41:33.008Z,1
2023-01-08T06:42:42.164Z,1
2023-01-08T06:43:51.353Z,1.1
2023-01-08T06:45:00.530Z,1
2023-01-08T06:46:09.707Z,0.9
2023-01-08T06:47:18.879Z,1
2023-01-08T06:48:28.040Z,1.1
2023-01-08T06:49:36.238Z,0.9
2023-01-08T06:50:44.429Z,0.9
2023-01-08T06:51:53.590Z,1
2023-01-08T06:53:02.770Z,1
2023-01-08T06:54:11.946Z,1.3
2023-01-08T06:55:20.140Z,0.9
2023-01-08T06:56:29.315Z,0.9
2023-01-08T06:57:37.552Z,0.8
2023-01-08T06:58:46.674Z,1
2023-01-08T06:59:55.867Z,1
2023-01-08T07:01:05.028Z,0.8
2023-01-08T07:02:14.188Z,1.7
2023-01-08T07:03:23.374Z,1.3
2023-01-08T07:04:32.531Z,1.1
2023-01-08T07:05:41.711Z,1
2023-01-08T07:06:50.880Z,0.9
2023-01-08T07:08:00.054Z,1.1
2023-01-08T07:09:09.224Z,1.3
2023-01-08T07:10:18.402Z,1
2023-01-08T07:11:27.592Z,1.4
2023-01-08T07:12:35.754Z,0.9
2023-01-08T07:13:44.928Z,1.1
2023-01-08T07:14:54.108Z,0.9
2023-01-08T07:16:03.271Z,1.3
2023-01-08T07:17:12.476Z,1.1
2023-01-08T07:18:21.625Z,1.1
2023-01-08T07:19:30.790Z,1.1
2023-01-08T07:20:38.998Z,2.4
2023-01-08T07:21:47.184Z,1.4
2023-01-08T07:22:56.350Z,1.1
2023-01-08T07:24:05.518Z,1.3
2023-01-08T07:25:14.692Z,1.3
2023-01-08T07:26:22.928Z,1.1
2023-01-08T07:27:31.072Z,1.3
2023-01-08T07:28:40.240Z,1.6
2023-01-08T07:29:49.417Z,1.1
2023-01-08T07:30:58.595Z,1.1
2023-01-08T07:32:07.790Z,1.2
2023-01-08T07:33:16.941Z,1.5
2023-01-08T07:34:26.120Z,1.2
2023-01-08T07:35:35.288Z,1.2
2023-01-08T07:36:44.452Z,1.1
2023-01-08T07:37:53.635Z,1.2
2023-01-08T07:39:02.804Z,1.1
2023-01-08T07:40:11.980Z,1.2
2023-01-08T07:41:21.220Z,1.3
2023-01-08T07:42:29.344Z,1.1
2023-01-08T07:43:38.520Z,1.3
2023-01-08T07:44:47.769Z,1.3
2023-01-08T07:45:56.857Z,1.3
2023-01-08T07:47:06.027Z,1.4
2023-01-08T07:48:15.215Z,1.4
2023-01-08T07:49:24.395Z,1.3
2023-01-08T07:50:32.545Z,1.2
2023-01-08T07:51:40.741Z,1.2
2023-01-08T07:52:49.956Z,1.3
2023-01-08T07:53:58.152Z,1.1
2023-01-08T07:55:06.322Z,1.1
2023-01-08T07:56:15.497Z,1
2023-01-08T07:57:24.661Z,1.1
2023-01-08T07:58:33.831Z,1.1
2023-01-08T07:59:43.001Z,1
2023-01-08T08:00:52.173Z,1
2023-01-08T08:02:01.350Z,1
2023-01-08T08:03:10.533Z,1.2
2023-01-08T08:04:19.793Z,0.9
2023-01-08T08:05:28.869Z,0.9
2023-01-08T08:06:38.042Z,1
2023-01-08T08:07:47.211Z,0.8
2023-01-08T08:10:05.550Z,0.9
2023-01-08T08:11:13.734Z,0.9
2023-01-08T08:12:22.968Z,0.9
2023-01-08T08:13:32.154Z,0.9
2023-01-08T08:15:50.432Z,1
2023-01-08T08:16:58.624Z,0.9
2023-01-08T08:18:06.848Z,1
2023-01-08T08:19:16.061Z,1.2
2023-01-08T08:20:25.175Z,1
2023-01-08T08:21:34.331Z,0.8
2023-01-08T08:22:43.547Z,1
2023-01-08T08:23:52.676Z,1.5
2023-01-08T08:25:01.847Z,1
2023-01-08T08:26:11.023Z,0.8
2023-01-08T08:27:20.202Z,1.1
2023-01-08T08:28:29.450Z,0.9
2023-01-08T08:30:46.719Z,1.1
2023-01-08T08:31:55.932Z,0.9
2023-01-08T08:33:04.095Z,0.9
2023-01-08T08:34:13.264Z,0.9
2023-01-08T08:35:22.476Z,1
2023-01-08T08:37:39.823Z,0.8
2023-01-08T08:38:48.011Z,0.8
2023-01-08T08:39:56.188Z,0.8
2023-01-08T08:41:05.401Z,0.8
2023-01-08T08:42:14.570Z,0.9
2023-01-08T08:43:23.718Z,1.1
2023-01-08T08:44:32.901Z,0.9
2023-01-08T08:45:42.054Z,0.8
2023-01-08T08:46:51.237Z,0.8
2023-01-08T08:48:00.446Z,1.1
2023-01-08T08:49:09.580Z,0.8
2023-01-08T08:50:18.793Z,0.9
2023-01-08T08:51:27.073Z,0.8
2023-01-08T08:52:35.130Z,0.9
2023-01-08T08:53:44.303Z,1
2023-01-08T08:54:53.474Z,1
2023-01-08T08:56:02.643Z,1.3
2023-01-08T08:57:11.817Z,0.9
2023-01-08T08:58:20.997Z,1
2023-01-08T08:59:30.159Z,0.8
2023-01-08T09:00:39.359Z,1.5
2023-01-08T09:01:48.535Z,1.6
2023-01-08T09:02:57.693Z,1.7
2023-01-08T09:04:05.888Z,0.9
2023-01-08T09:05:14.093Z,0.9
2023-01-08T09:06:23.239Z,0.9
2023-01-08T09:07:32.412Z,0.9
2023-01-08T09:08:41.584Z,1.1
2023-01-08T09:09:50.756Z,1
2023-01-08T09:10:59.945Z,1
2023-01-08T09:12:09.113Z,0.9
2023-01-08T09:13:18.310Z,1.2
2023-01-08T09:14:27.450Z,1
2023-01-08T09:15:36.614Z,0.8
2023-01-08T09:16:45.803Z,1.2
2023-01-08T09:17:54.967Z,1
2023-01-08T09:19:04.136Z,1.8
2023-01-08T09:20:12.324Z,1.2
2023-01-08T09:21:21.595Z,0.9
2023-01-08T09:22:30.661Z,1.2
2023-01-08T09:23:39.843Z,1
2023-01-08T09:24:49.013Z,1.5
2023-01-08T09:25:58.249Z,1.2
2023-01-08T09:27:07.370Z,1
2023-01-08T09:28:15.635Z,1
2023-01-08T09:29:23.748Z,1.1
2023-01-08T09:30:31.931Z,1
2023-01-08T09:31:40.208Z,1.1
2023-01-08T09:32:49.353Z,1
2023-01-08T09:33:58.573Z,1.5
2023-01-08T09:35:07.705Z,1.1
2023-01-08T09:36:16.837Z,1.2
2023-01-08T09:37:25.984Z,1.2
2023-01-08T09:38:35.151Z,1
2023-01-08T09:39:44.328Z,1.2
2023-01-08T09:40:53.505Z,1.2
2023-01-08T09:42:02.675Z,1.3
2023-01-08T09:43:11.856Z,1.4
2023-01-08T09:44:21.025Z,1.1
2023-01-08T09:45:30.196Z,1.5
2023-01-08T09:46:38.375Z,1.4
2023-01-08T09:47:47.571Z,1.2
2023-01-08T09:48:56.722Z,1.5
2023-01-08T09:50:05.889Z,1.2
2023-01-08T09:51:15.076Z,1.4
2023-01-08T09:52:24.234Z,1.6
2023-01-08T09:53:33.413Z,1.3
2023-01-08T09:54:41.599Z,1.5
2023-01-08T09:55:50.778Z,1.2
2023-01-08T09:56:59.057Z,1.2
2023-01-08T09:58:07.168Z,1.7
2023-01-08T09:59:16.488Z,2
2023-01-08T10:00:25.545Z,1.2
2023-01-08T10:01:34.688Z,1.3
2023-01-08T10:03:53.024Z,1.2
2023-01-08T10:05:02.191Z,1.4
2023-01-08T10:06:11.358Z,1.3
2023-01-08T10:07:20.537Z,1.2
2023-01-08T10:08:29.704Z,2.09
2023-01-08T10:09:38.927Z,1.3
2023-01-08T10:10:48.057Z,1.2
2023-01-08T10:11:57.229Z,1.5
2023-01-08T10:13:05.423Z,1.3
2023-01-08T10:14:14.564Z,1.4
2023-01-08T10:15:23.756Z,1.4
2023-01-08T10:16:32.933Z,2.7
2023-01-08T10:17:42.104Z,1.3
2023-01-08T10:18:51.274Z,1.4
2023-01-08T10:20:00.455Z,1.4
2023-01-08T10:22:18.887Z,1.4
2023-01-08T10:23:26.987Z,1.4
2023-01-08T10:24:35.180Z,1.8
2023-01-08T10:25:44.340Z,1.7
2023-01-08T10:26:53.516Z,1.4
2023-01-08T10:28:01.712Z,1.2
2023-01-08T10:29:09.897Z,1.6
2023-01-08T10:30:19.069Z,1.7
2023-01-08T10:31:28.230Z,2.09
2023-01-08T10:32:37.474Z,1.5
2023-01-08T10:33:46.592Z,1.6
2023-01-08T10:34:55.778Z,1.4
2023-01-08T10:36:04.939Z,1.2
2023-01-08T10:37:14.120Z,1.2
2023-01-08T10:38:23.281Z,1.4
2023-01-08T10:39:32.481Z,1.5
2023-01-08T10:40:41.623Z,1.7
2023-01-08T10:41:50.815Z,1.3
2023-01-08T10:42:59.985Z,1.4
2023-01-08T10:44:09.156Z,1.6
2023-01-08T10:45:17.334Z,1.3
2023-01-08T10:46:26.491Z,1.5
2023-01-08T10:47:35.681Z,1.3
2023-01-08T10:48:44.847Z,1.6
2023-01-08T10:49:54.011Z,1.6
2023-01-08T10:51:03.194Z,1.7
2023-01-08T10:52:11.383Z,1.5
2023-01-08T10:53:19.566Z,1.4
2023-01-08T10:54:27.765Z,1.7
2023-01-08T10:55:36.940Z,1.5
2023-01-08T10:56:45.151Z,1.2
2023-01-08T10:57:54.293Z,1.4
2023-01-08T10:59:03.476Z,1.2
2023-01-08T11:01:21.814Z,1.6
2023-01-08T11:02:31.006Z,1.6
2023-01-08T11:03:40.162Z,1.3
2023-01-08T11:04:49.394Z,1.5
2023-01-08T11:05:58.512Z,1.2
2023-01-08T11:07:07.678Z,1.3
2023-01-08T11:09:26.033Z,1.4
2023-01-08T11:10:34.224Z,1.4
2023-01-08T11:11:42.412Z,1.8
2023-01-08T11:12:51.589Z,1.3
2023-01-08T11:14:00.758Z,1.4
2023-01-08T11:15:09.935Z,1.5
2023-01-08T11:16:19.101Z,1.8
2023-01-08T11:17:28.269Z,1.9
2023-01-08T11:18:37.448Z,1.1
2023-01-08T11:19:46.614Z,1.7
2023-01-08T11:20:55.774Z,1.9
2023-01-08T11:22:04.973Z,1.4
2023-01-08T11:23:13.140Z,1.5
2023-01-08T11:24:21.425Z,1.4
2023-01-08T11:25:30.535Z,1.5
2023-01-08T11:26:39.675Z,1.8
2023-01-08T11:27:48.887Z,1.3
2023-01-08T11:28:58.137Z,1.7
2023-01-08T11:30:07.260Z,1.3
2023-01-08T11:31:16.368Z,1.4
2023-01-08T11:32:25.555Z,1.3
2023-01-08T11:33:34.723Z,2
2023-01-08T11:34:43.879Z,1.2
2023-01-08T11:35:53.083Z,1.6
2023-01-08T11:37:02.245Z,1.3
2023-01-08T11:38:11.397Z,1.1
2023-01-08T11:39:19.607Z,1.2
2023-01-08T11:40:28.771Z,2.3
2023-01-08T11:41:37.956Z,1.3
2023-01-08T11:42:47.175Z,1.2
2023-01-08T11:43:56.299Z,1.3
2023-01-08T11:45:05.458Z,1.2
2023-01-08T11:46:14.667Z,1.5
2023-01-08T11:47:22.816Z,2
2023-01-08T11:48:31.008Z,1.3
2023-01-08T11:49:40.181Z,2
2023-01-08T11:50:49.344Z,1.6
2023-01-08T11:51:58.631Z,1.5
2023-01-08T11:53:07.691Z,1.4
2023-01-08T11:54:16.858Z,1.2
2023-01-08T11:55:26.036Z,1.9
2023-01-08T11:56:35.229Z,1.2
2023-01-08T11:57:44.392Z,1.5
2023-01-08T11:58:53.570Z,1.5
2023-01-08T12:00:02.762Z,1.3
2023-01-08T12:01:11.899Z,1.4
2023-01-08T12:02:21.085Z,2.3
2023-01-08T12:03:29.263Z,1.7
2023-01-08T12:04:38.440Z,1.5
2023-01-08T12:05:47.686Z,1.6
2023-01-08T12:06:56.775Z,1.5
2023-01-08T12:08:05.942Z,1.5
2023-01-08T12:09:15.146Z,1.7
2023-01-08T12:10:24.294Z,1.3
2023-01-08T12:12:41.663Z,1.2
2023-01-08T12:13:49.865Z,1.3
2023-01-08T12:14:58.076Z,1
2023-01-08T12:16:06.237Z,1.4
2023-01-08T12:17:15.413Z,1.5
2023-01-08T12:18:23.602Z,1.3
2023-01-08T12:19:32.775Z,1
2023-01-08T12:20:40.993Z,1
2023-01-08T12:21:50.144Z,1.7
2023-01-08T12:22:58.335Z,1.1
2023-01-08T12:24:07.497Z,1
2023-01-08T12:25:16.665Z,0.8
2023-01-08T12:26:25.845Z,0.9
2023-01-08T12:28:44.187Z,2.6
2023-01-08T12:29:53.370Z,1
2023-01-08T12:31:01.566Z,1.3
2023-01-08T12:32:10.734Z,0.9
2023-01-08T12:33:19.968Z,1.6
2023-01-08T12:34:29.103Z,1.1
2023-01-08T12:35:38.251Z,1.4
2023-01-08T12:36:47.423Z,0.9
2023-01-08T12:37:56.585Z,0.9
2023-01-08T12:39:05.796Z,1.2
2023-01-08T12:40:14.938Z,1
2023-01-08T12:41:24.108Z,1
2023-01-08T12:42:33.277Z,1.2
2023-01-08T12:43:42.453Z,1.5
2023-01-08T12:44:51.614Z,1.2
2023-01-08T12:45:59.820Z,1.1
2023-01-08T12:48:17.181Z,1.5
2023-01-08T12:49:25.367Z,0.9
2023-01-08T12:50:33.559Z,1.2
2023-01-08T12:51:42.722Z,1.2
2023-01-08T12:52:51.906Z,1.3
2023-01-08T12:54:01.076Z,1.1
2023-01-08T12:56:19.437Z,1.1
2023-01-08T12:57:28.665Z,1.4
2023-01-08T12:58:37.829Z,0.9
2023-01-08T12:59:46.948Z,1.2
2023-01-08T13:00:56.111Z,0.9
2023-01-08T13:02:05.281Z,1
2023-01-08T13:04:23.646Z,1
2023-01-08T13:05:31.814Z,0.9
2023-01-08T13:06:40.015Z,1
2023-01-08T13:07:49.170Z,1.1
2023-01-08T13:08:58.355Z,1
2023-01-08T13:10:07.587Z,0.8
2023-01-08T13:11:16.823Z,1.8
2023-01-08T13:12:25.867Z,1.2
2023-01-08T13:13:35.041Z,1.1
2023-01-08T13:14:44.215Z,1.6
2023-01-08T13:15:53.392Z,1.1
2023-01-08T13:17:02.556Z,1.3
2023-01-08T13:18:10.753Z,1.3
2023-01-08T13:19:18.950Z,1
2023-01-08T13:20:28.252Z,1
2023-01-08T13:21:37.365Z,1.3
2023-01-08T13:22:46.471Z,1.1
2023-01-08T13:23:55.630Z,0.9
2023-01-08T13:25:04.815Z,1.8
2023-01-08T13:26:14.136Z,0.9
2023-01-08T13:27:23.159Z,0.8
2023-01-08T13:28:32.349Z,0.7
2023-01-08T13:29:41.493Z,1.3
2023-01-08T13:30:50.696Z,1.7
2023-01-08T13:31:59.836Z,0.7
2023-01-08T13:33:09.021Z,2.3
2023-01-08T13:34:17.216Z,0.7
2023-01-08T13:35:26.420Z,0.8
2023-01-08T13:36:35.552Z,0.7
2023-01-08T13:37:44.725Z,0.8
2023-01-08T13:38:53.885Z,0.8
2023-01-08T13:40:03.131Z,1.1
2023-01-08T13:41:12.243Z,1.1
2023-01-08T13:42:20.441Z,1.2
2023-01-08T13:43:28.634Z,1
2023-01-08T13:44:37.814Z,1
2023-01-08T13:45:46.011Z,0.9
2023-01-08T13:46:54.179Z,1.1
2023-01-08T13:48:03.354Z,1.2
2023-01-08T13:49:12.519Z,1.3
2023-01-08T13:50:21.689Z,1.2
2023-01-08T13:51:30.872Z,1.5
2023-01-08T13:52:40.040Z,1.3
2023-01-08T13:53:49.210Z,1.6
2023-01-08T13:54:58.385Z,1.1
2023-01-08T13:56:07.612Z,1.3
2023-01-08T13:57:16.743Z,1.2
2023-01-08T13:58:25.974Z,1.6
2023-01-08T13:59:35.084Z,1.3
2023-01-08T14:00:44.253Z,1.4
2023-01-08T14:01:52.444Z,1.2
2023-01-08T14:03:01.619Z,1.1
2023-01-08T14:04:10.788Z,1.1
2023-01-08T14:05:19.967Z,1.2
2023-01-08T14:06:29.124Z,1.5
2023-01-08T14:07:38.299Z,1.5
2023-01-08T14:08:47.470Z,1.2
2023-01-08T14:09:55.685Z,1.1
2023-01-08T14:11:03.856Z,2.2
2023-01-08T14:12:13.026Z,1.6
2023-01-08T14:13:22.202Z,1.8
2023-01-08T14:14:31.379Z,1.7
2023-01-08T14:15:40.626Z,1.9
2023-01-08T14:16:49.713Z,5.2
2023-01-08T14:17:58.883Z,2.5
2023-01-08T14:19:08.065Z,2.2
2023-01-08T14:20:16.250Z,2.09
2023-01-08T14:21:24.439Z,2.3
2023-01-08T14:23:42.785Z,2.4
2023-01-08T14:24:51.989Z,2.4
2023-01-08T14:26:01.137Z,2.7
2023-01-08T14:27:10.306Z,3.2
2023-01-08T14:29:28.644Z,3.7
2023-01-08T14:30:37.825Z,3.4
2023-01-08T14:31:47.013Z,3.7
2023-01-08T14:32:56.180Z,3.9
2023-01-08T14:34:05.341Z,3.8
2023-01-08T14:35:13.519Z,3.7
2023-01-08T14:36:21.717Z,3.5
2023-01-08T14:37:30.890Z,3.6
2023-01-08T14:38:40.068Z,4.1
2023-01-08T14:39:49.560Z,4
2023-01-08T14:40:58.400Z,3.9
2023-01-08T14:42:07.585Z,4.4
2023-01-08T14:43:16.741Z,4.19
2023-01-08T14:44:25.920Z,4.1
2023-01-08T14:45:35.083Z,4
2023-01-08T14:46:44.272Z,4.4
2023-01-08T14:47:52.465Z,3.6
2023-01-08T14:49:01.637Z,3.4
2023-01-08T14:50:09.817Z,5
2023-01-08T14:51:18.990Z,3.4
2023-01-08T14:52:28.170Z,3.5
2023-01-08T14:54:46.546Z,3.7
2023-01-08T14:55:55.678Z,3.8
2023-01-08T14:57:04.859Z,4
2023-01-08T14:58:14.020Z,4.1
2023-01-08T14:59:23.197Z,3.5
2023-01-08T15:00:32.361Z,3.3
2023-01-08T15:01:41.589Z,3.1
2023-01-08T15:02:50.722Z,3.3
2023-01-08T15:03:59.902Z,4.19
2023-01-08T15:05:09.063Z,3.6
2023-01-08T15:06:17.249Z,3.5
2023-01-08T15:07:26.416Z,3.2
2023-01-08T15:08:35.643Z,3.5
2023-01-08T15:09:44.799Z,3.3
2023-01-08T15:10:53.938Z,3.5
2023-01-08T15:12:03.220Z,3.2
2023-01-08T15:13:11.302Z,3.1
2023-01-08T15:14:19.518Z,3
2023-01-08T15:15:28.713Z,3.3
2023-01-08T15:16:37.154Z,3.5
2023-01-08T15:17:45.056Z,4.6
2023-01-08T15:18:54.260Z,3.5
2023-01-08T15:20:03.387Z,3.6
2023-01-08T15:21:12.599Z,3.7
2023-01-08T15:23:30.918Z,3.3
2023-01-08T15:24:40.086Z,3.3
2023-01-08T15:25:49.267Z,3.5
2023-01-08T15:26:58.489Z,3.1
2023-01-08T15:28:07.610Z,3
2023-01-08T15:29:16.826Z,2.9
2023-01-08T15:30:25.942Z,2.9
2023-01-08T15:31:35.121Z,2.9
2023-01-08T15:32:43.314Z,2.8
2023-01-08T15:33:52.479Z,3.1
2023-01-08T15:35:01.660Z,3.1
2023-01-08T15:36:10.870Z,2.7
2023-01-08T15:37:19.994Z,3.1
2023-01-08T15:38:29.266Z,3
2023-01-08T15:39:38.400Z,3.1
2023-01-08T15:41:56.714Z,3.1
2023-01-08T15:43:04.935Z,3.1
2023-01-08T15:44:13.074Z,2.7
2023-01-08T15:45:22.252Z,3.1
2023-01-08T15:46:31.447Z,3.2
2023-01-08T15:47:39.605Z,3.6
2023-01-08T15:48:47.802Z,3.6
2023-01-08T15:49:56.977Z,3.6
2023-01-08T15:51:06.156Z,2.6
2023-01-08T15:52:15.357Z,3.1
2023-01-08T15:53:24.566Z,2.8
2023-01-08T15:54:33.728Z,2.8
2023-01-08T15:55:42.829Z,2.8
2023-01-08T15:56:52.004Z,2.8
2023-01-08T15:58:01.194Z,3.4
2023-01-08T15:59:10.352Z,3.1
2023-01-08T16:00:19.532Z,3
2023-01-08T16:01:28.698Z,2.9
2023-01-08T16:02:37.879Z,3
2023-01-08T16:03:46.062Z,3
2023-01-08T16:04:55.236Z,3.1
2023-01-08T16:06:04.404Z,3
2023-01-08T16:07:13.590Z,2.9
2023-01-08T16:08:22.744Z,3
2023-01-08T16:09:31.924Z,3.3
2023-01-08T16:10:41.091Z,3.3
2023-01-08T16:11:49.293Z,3.1
2023-01-08T16:12:57.480Z,3
2023-01-08T16:14:05.673Z,3.1
2023-01-08T16:15:13.866Z,3.1
2023-01-08T16:16:23.036Z,3
2023-01-08T16:17:32.206Z,3.4
2023-01-08T16:18:41.378Z,3.2
2023-01-08T16:19:50.548Z,3.6
2023-01-08T16:20:59.757Z,3.6
2023-01-08T16:22:07.920Z,3.4
2023-01-08T16:23:17.093Z,3.5
2023-01-08T16:24:26.267Z,3.5
2023-01-08T16:25:35.471Z,3.4